sensor_id;sensor_type;location;lat;lon;timestamp;P1;durP1;ratioP1;P2;durP2;ratioP2
75506;SDS011;64086;43.220;27.878;2023-11-22T00:00:39;6.07;;;5.32;;
75506;SDS011;64086;43.220;27.878;2023-11-22T00:03:05;7.95;;;6.20;;
75506;SDS011;64086;43.220;27.878;2023-11-22T00:05:30;6.68;;;5.07;;
75506;SDS011;64086;43.220;27.878;2023-11-22T00:07:56;6.05;;;4.82;;
75506;SDS011;64086;43.220;27.878;2023-11-22T00:10:22;8.20;;;5.75;;
75506;SDS011;64086;43.220;27.878;2023-11-22T00:12:48;9.85;;;6.53;;
75506;SDS011;64086;43.220;27.878;2023-11-22T00:15:14;11.88;;;8.10;;
75506;SDS011;64086;43.220;27.878;2023-11-22T00:17:43;11.63;;;9.70;;
75506;SDS011;64086;43.220;27.878;2023-11-22T00:20:09;11.88;;;10.45;;
75506;SDS011;64086;43.220;27.878;2023-11-22T00:22:35;10.80;;;8.98;;
75506;SDS011;64086;43.220;27.878;2023-11-22T00:25:01;12.95;;;9.90;;
75506;SDS011;64086;43.220;27.878;2023-11-22T00:27:27;7.28;;;6.20;;
75506;SDS011;64086;43.220;27.878;2023-11-22T00:29:54;8.27;;;6.30;;
75506;SDS011;64086;43.220;27.878;2023-11-22T00:32:20;7.68;;;5.90;;
75506;SDS011;64086;43.220;27.878;2023-11-22T00:34:46;7.15;;;5.68;;
75506;SDS011;64086;43.220;27.878;2023-11-22T00:37:12;8.77;;;6.07;;
75506;SDS011;64086;43.220;27.878;2023-11-22T00:39:38;7.75;;;6.40;;
75506;SDS011;64086;43.220;27.878;2023-11-22T00:42:03;8.63;;;6.20;;
75506;SDS011;64086;43.220;27.878;2023-11-22T00:44:29;7.35;;;6.28;;
75506;SDS011;64086;43.220;27.878;2023-11-22T00:46:55;7.70;;;5.35;;
75506;SDS011;64086;43.220;27.878;2023-11-22T00:49:22;7.55;;;5.28;;
75506;SDS011;64086;43.220;27.878;2023-11-22T00:51:48;8.30;;;5.30;;
75506;SDS011;64086;43.220;27.878;2023-11-22T00:54:13;7.10;;;5.70;;
75506;SDS011;64086;43.220;27.878;2023-11-22T00:56:40;7.78;;;5.65;;
75506;SDS011;64086;43.220;27.878;2023-11-22T00:59:06;8.30;;;6.22;;
75506;SDS011;64086;43.220;27.878;2023-11-22T01:01:31;9.93;;;8.02;;
75506;SDS011;64086;43.220;27.878;2023-11-22T01:03:57;11.88;;;10.50;;
75506;SDS011;64086;43.220;27.878;2023-11-22T01:06:23;13.23;;;11.10;;
75506;SDS011;64086;43.220;27.878;2023-11-22T01:08:48;14.40;;;12.20;;
75506;SDS011;64086;43.220;27.878;2023-11-22T01:11:14;14.45;;;11.23;;
75506;SDS011;64086;43.220;27.878;2023-11-22T01:13:40;15.32;;;13.38;;
75506;SDS011;64086;43.220;27.878;2023-11-22T01:16:07;14.15;;;10.50;;
75506;SDS011;64086;43.220;27.878;2023-11-22T01:18:33;11.70;;;9.30;;
75506;SDS011;64086;43.220;27.878;2023-11-22T01:20:59;9.23;;;6.35;;
75506;SDS011;64086;43.220;27.878;2023-11-22T01:23:25;7.43;;;5.85;;
75506;SDS011;64086;43.220;27.878;2023-11-22T01:25:51;7.72;;;6.40;;
75506;SDS011;64086;43.220;27.878;2023-11-22T01:28:16;10.07;;;7.50;;
75506;SDS011;64086;43.220;27.878;2023-11-22T01:30:42;13.05;;;10.70;;
75506;SDS011;64086;43.220;27.878;2023-11-22T01:33:10;16.52;;;12.05;;
75506;SDS011;64086;43.220;27.878;2023-11-22T01:35:36;14.32;;;11.70;;
75506;SDS011;64086;43.220;27.878;2023-11-22T01:38:02;14.52;;;12.88;;
75506;SDS011;64086;43.220;27.878;2023-11-22T01:40:29;17.20;;;13.55;;
75506;SDS011;64086;43.220;27.878;2023-11-22T01:42:55;17.15;;;14.18;;
75506;SDS011;64086;43.220;27.878;2023-11-22T01:45:21;18.42;;;14.48;;
75506;SDS011;64086;43.220;27.878;2023-11-22T01:47:47;18.38;;;15.02;;
75506;SDS011;64086;43.220;27.878;2023-11-22T01:50:12;16.17;;;14.07;;
75506;SDS011;64086;43.220;27.878;2023-11-22T01:52:39;18.48;;;14.65;;
75506;SDS011;64086;43.220;27.878;2023-11-22T01:55:05;17.48;;;15.25;;
75506;SDS011;64086;43.220;27.878;2023-11-22T01:57:32;21.13;;;15.73;;
75506;SDS011;64086;43.220;27.878;2023-11-22T02:00:00;18.33;;;15.18;;
75506;SDS011;64086;43.220;27.878;2023-11-22T02:02:32;18.25;;;15.45;;
75506;SDS011;64086;43.220;27.878;2023-11-22T02:04:58;16.92;;;14.50;;
75506;SDS011;64086;43.220;27.878;2023-11-22T02:07:24;17.40;;;14.50;;
75506;SDS011;64086;43.220;27.878;2023-11-22T02:09:52;17.88;;;15.20;;
75506;SDS011;64086;43.220;27.878;2023-11-22T02:12:18;16.95;;;14.88;;
75506;SDS011;64086;43.220;27.878;2023-11-22T02:14:44;17.83;;;14.57;;
75506;SDS011;64086;43.220;27.878;2023-11-22T02:17:10;17.70;;;13.60;;
75506;SDS011;64086;43.220;27.878;2023-11-22T02:19:35;15.18;;;11.90;;
75506;SDS011;64086;43.220;27.878;2023-11-22T02:22:01;14.68;;;11.75;;
75506;SDS011;64086;43.220;27.878;2023-11-22T02:24:27;14.38;;;11.40;;
75506;SDS011;64086;43.220;27.878;2023-11-22T02:26:53;13.38;;;10.82;;
75506;SDS011;64086;43.220;27.878;2023-11-22T02:29:18;14.07;;;11.52;;
75506;SDS011;64086;43.220;27.878;2023-11-22T02:31:45;15.23;;;13.18;;
75506;SDS011;64086;43.220;27.878;2023-11-22T02:34:10;14.48;;;12.02;;
75506;SDS011;64086;43.220;27.878;2023-11-22T02:36:36;13.05;;;11.65;;
75506;SDS011;64086;43.220;27.878;2023-11-22T02:39:02;11.48;;;8.15;;
75506;SDS011;64086;43.220;27.878;2023-11-22T02:41:28;8.93;;;6.75;;
75506;SDS011;64086;43.220;27.878;2023-11-22T02:43:55;9.27;;;7.57;;
75506;SDS011;64086;43.220;27.878;2023-11-22T02:46:20;10.15;;;7.60;;
75506;SDS011;64086;43.220;27.878;2023-11-22T02:48:46;8.40;;;6.75;;
75506;SDS011;64086;43.220;27.878;2023-11-22T02:51:11;9.30;;;7.05;;
75506;SDS011;64086;43.220;27.878;2023-11-22T02:53:39;10.57;;;7.57;;
75506;SDS011;64086;43.220;27.878;2023-11-22T02:56:08;13.57;;;10.35;;
75506;SDS011;64086;43.220;27.878;2023-11-22T02:58:34;14.70;;;11.80;;
75506;SDS011;64086;43.220;27.878;2023-11-22T03:01:00;11.88;;;10.32;;
75506;SDS011;64086;43.220;27.878;2023-11-22T03:03:25;14.10;;;12.60;;
75506;SDS011;64086;43.220;27.878;2023-11-22T03:05:51;16.27;;;13.07;;
75506;SDS011;64086;43.220;27.878;2023-11-22T03:08:16;14.80;;;12.43;;
75506;SDS011;64086;43.220;27.878;2023-11-22T03:10:42;13.02;;;11.68;;
75506;SDS011;64086;43.220;27.878;2023-11-22T03:13:07;12.43;;;11.13;;
75506;SDS011;64086;43.220;27.878;2023-11-22T03:15:34;13.77;;;11.73;;
75506;SDS011;64086;43.220;27.878;2023-11-22T03:17:59;16.27;;;11.02;;
75506;SDS011;64086;43.220;27.878;2023-11-22T03:20:26;15.93;;;12.52;;
75506;SDS011;64086;43.220;27.878;2023-11-22T03:22:52;16.40;;;12.48;;
75506;SDS011;64086;43.220;27.878;2023-11-22T03:25:17;15.68;;;12.43;;
75506;SDS011;64086;43.220;27.878;2023-11-22T03:27:43;13.25;;;10.38;;
75506;SDS011;64086;43.220;27.878;2023-11-22T03:30:09;8.55;;;6.68;;
75506;SDS011;64086;43.220;27.878;2023-11-22T03:32:39;8.30;;;5.63;;
75506;SDS011;64086;43.220;27.878;2023-11-22T03:35:08;10.32;;;5.85;;
75506;SDS011;64086;43.220;27.878;2023-11-22T03:37:34;7.35;;;5.72;;
75506;SDS011;64086;43.220;27.878;2023-11-22T03:39:59;8.07;;;5.45;;
75506;SDS011;64086;43.220;27.878;2023-11-22T03:42:25;8.65;;;5.63;;
75506;SDS011;64086;43.220;27.878;2023-11-22T03:44:52;11.10;;;8.27;;
75506;SDS011;64086;43.220;27.878;2023-11-22T03:47:18;8.85;;;7.63;;
75506;SDS011;64086;43.220;27.878;2023-11-22T03:49:44;12.13;;;9.70;;
75506;SDS011;64086;43.220;27.878;2023-11-22T03:52:12;12.15;;;9.35;;
75506;SDS011;64086;43.220;27.878;2023-11-22T03:54:39;14.93;;;11.40;;
75506;SDS011;64086;43.220;27.878;2023-11-22T03:57:05;16.85;;;13.07;;
75506;SDS011;64086;43.220;27.878;2023-11-22T03:59:30;17.00;;;13.77;;
75506;SDS011;64086;43.220;27.878;2023-11-22T04:01:56;15.45;;;12.68;;
75506;SDS011;64086;43.220;27.878;2023-11-22T04:04:22;17.42;;;13.57;;
75506;SDS011;64086;43.220;27.878;2023-11-22T04:06:47;16.05;;;13.45;;
75506;SDS011;64086;43.220;27.878;2023-11-22T04:09:13;15.48;;;13.63;;
75506;SDS011;64086;43.220;27.878;2023-11-22T04:11:39;15.77;;;13.07;;
75506;SDS011;64086;43.220;27.878;2023-11-22T04:14:05;15.27;;;13.52;;
75506;SDS011;64086;43.220;27.878;2023-11-22T04:16:31;16.08;;;13.27;;
75506;SDS011;64086;43.220;27.878;2023-11-22T04:18:56;17.50;;;14.30;;
75506;SDS011;64086;43.220;27.878;2023-11-22T04:21:22;15.25;;;13.65;;
75506;SDS011;64086;43.220;27.878;2023-11-22T04:23:49;17.33;;;13.57;;
75506;SDS011;64086;43.220;27.878;2023-11-22T04:26:14;15.15;;;13.55;;
75506;SDS011;64086;43.220;27.878;2023-11-22T04:28:41;15.98;;;13.23;;
75506;SDS011;64086;43.220;27.878;2023-11-22T04:31:07;16.25;;;14.35;;
75506;SDS011;64086;43.220;27.878;2023-11-22T04:33:34;15.52;;;13.63;;
75506;SDS011;64086;43.220;27.878;2023-11-22T04:35:59;17.38;;;15.35;;
75506;SDS011;64086;43.220;27.878;2023-11-22T04:38:25;17.98;;;14.95;;
75506;SDS011;64086;43.220;27.878;2023-11-22T04:40:51;20.75;;;15.75;;
75506;SDS011;64086;43.220;27.878;2023-11-22T04:43:17;17.83;;;15.70;;
75506;SDS011;64086;43.220;27.878;2023-11-22T04:45:42;18.13;;;14.70;;
75506;SDS011;64086;43.220;27.878;2023-11-22T04:48:08;20.83;;;16.15;;
75506;SDS011;64086;43.220;27.878;2023-11-22T04:50:34;23.60;;;18.00;;
75506;SDS011;64086;43.220;27.878;2023-11-22T04:53:00;22.75;;;17.92;;
75506;SDS011;64086;43.220;27.878;2023-11-22T04:55:26;20.20;;;17.42;;
75506;SDS011;64086;43.220;27.878;2023-11-22T04:57:53;21.17;;;17.80;;
75506;SDS011;64086;43.220;27.878;2023-11-22T05:00:19;20.98;;;16.83;;
75506;SDS011;64086;43.220;27.878;2023-11-22T05:02:45;18.83;;;15.27;;
75506;SDS011;64086;43.220;27.878;2023-11-22T05:05:11;18.90;;;16.90;;
75506;SDS011;64086;43.220;27.878;2023-11-22T05:07:36;19.02;;;16.65;;
75506;SDS011;64086;43.220;27.878;2023-11-22T05:10:03;18.83;;;16.48;;
75506;SDS011;64086;43.220;27.878;2023-11-22T05:12:29;19.17;;;16.98;;
75506;SDS011;64086;43.220;27.878;2023-11-22T05:14:54;19.23;;;17.20;;
75506;SDS011;64086;43.220;27.878;2023-11-22T05:17:20;19.05;;;15.73;;
75506;SDS011;64086;43.220;27.878;2023-11-22T05:19:45;18.92;;;16.58;;
75506;SDS011;64086;43.220;27.878;2023-11-22T05:22:11;19.92;;;16.35;;
75506;SDS011;64086;43.220;27.878;2023-11-22T05:24:36;19.95;;;17.13;;
75506;SDS011;64086;43.220;27.878;2023-11-22T05:27:06;19.70;;;16.30;;
75506;SDS011;64086;43.220;27.878;2023-11-22T05:29:32;20.73;;;18.58;;
75506;SDS011;64086;43.220;27.878;2023-11-22T05:31:58;22.77;;;18.15;;
75506;SDS011;64086;43.220;27.878;2023-11-22T05:34:24;28.60;;;23.73;;
75506;SDS011;64086;43.220;27.878;2023-11-22T05:36:50;33.70;;;26.30;;
75506;SDS011;64086;43.220;27.878;2023-11-22T05:39:15;43.33;;;30.00;;
75506;SDS011;64086;43.220;27.878;2023-11-22T05:41:42;66.25;;;37.30;;
75506;SDS011;64086;43.220;27.878;2023-11-22T05:44:08;48.90;;;31.35;;
75506;SDS011;64086;43.220;27.878;2023-11-22T05:46:33;31.48;;;25.52;;
75506;SDS011;64086;43.220;27.878;2023-11-22T05:48:59;28.60;;;23.50;;
75506;SDS011;64086;43.220;27.878;2023-11-22T05:51:25;29.17;;;23.55;;
75506;SDS011;64086;43.220;27.878;2023-11-22T05:53:51;34.13;;;25.50;;
75506;SDS011;64086;43.220;27.878;2023-11-22T05:56:16;31.13;;;27.65;;
75506;SDS011;64086;43.220;27.878;2023-11-22T05:58:42;29.67;;;25.10;;
75506;SDS011;64086;43.220;27.878;2023-11-22T06:01:08;28.15;;;24.42;;
75506;SDS011;64086;43.220;27.878;2023-11-22T06:03:34;30.05;;;25.45;;
75506;SDS011;64086;43.220;27.878;2023-11-22T06:06:00;29.65;;;23.75;;
75506;SDS011;64086;43.220;27.878;2023-11-22T06:08:26;30.63;;;27.27;;
75506;SDS011;64086;43.220;27.878;2023-11-22T06:10:51;30.40;;;27.17;;
75506;SDS011;64086;43.220;27.878;2023-11-22T06:13:18;27.83;;;24.75;;
75506;SDS011;64086;43.220;27.878;2023-11-22T06:15:44;28.17;;;23.23;;
75506;SDS011;64086;43.220;27.878;2023-11-22T06:18:10;30.23;;;22.33;;
75506;SDS011;64086;43.220;27.878;2023-11-22T06:20:35;27.17;;;21.88;;
75506;SDS011;64086;43.220;27.878;2023-11-22T06:23:01;37.08;;;27.20;;
75506;SDS011;64086;43.220;27.878;2023-11-22T06:25:27;35.58;;;26.23;;
75506;SDS011;64086;43.220;27.878;2023-11-22T06:27:52;29.83;;;24.90;;
75506;SDS011;64086;43.220;27.878;2023-11-22T06:30:18;34.53;;;25.92;;
75506;SDS011;64086;43.220;27.878;2023-11-22T06:32:44;28.60;;;25.58;;
75506;SDS011;64086;43.220;27.878;2023-11-22T06:35:10;30.67;;;25.95;;
75506;SDS011;64086;43.220;27.878;2023-11-22T06:37:39;31.13;;;24.77;;
75506;SDS011;64086;43.220;27.878;2023-11-22T06:40:05;25.15;;;22.27;;
75506;SDS011;64086;43.220;27.878;2023-11-22T06:42:33;32.58;;;26.35;;
75506;SDS011;64086;43.220;27.878;2023-11-22T06:44:59;37.15;;;28.92;;
75506;SDS011;64086;43.220;27.878;2023-11-22T06:47:25;40.38;;;29.45;;
75506;SDS011;64086;43.220;27.878;2023-11-22T06:49:52;38.53;;;30.08;;
75506;SDS011;64086;43.220;27.878;2023-11-22T06:52:18;39.70;;;29.23;;
75506;SDS011;64086;43.220;27.878;2023-11-22T06:54:44;40.67;;;29.40;;
75506;SDS011;64086;43.220;27.878;2023-11-22T06:57:09;42.80;;;32.63;;
75506;SDS011;64086;43.220;27.878;2023-11-22T06:59:35;45.20;;;32.75;;
75506;SDS011;64086;43.220;27.878;2023-11-22T07:02:00;47.58;;;33.97;;
75506;SDS011;64086;43.220;27.878;2023-11-22T07:04:26;46.35;;;33.70;;
75506;SDS011;64086;43.220;27.878;2023-11-22T07:06:52;44.42;;;31.27;;
75506;SDS011;64086;43.220;27.878;2023-11-22T07:09:18;36.05;;;28.17;;
75506;SDS011;64086;43.220;27.878;2023-11-22T07:11:44;29.83;;;22.88;;
75506;SDS011;64086;43.220;27.878;2023-11-22T07:14:09;22.95;;;16.67;;
75506;SDS011;64086;43.220;27.878;2023-11-22T07:16:35;19.25;;;16.27;;
75506;SDS011;64086;43.220;27.878;2023-11-22T07:19:02;27.55;;;21.85;;
75506;SDS011;64086;43.220;27.878;2023-11-22T07:21:28;33.53;;;26.48;;
75506;SDS011;64086;43.220;27.878;2023-11-22T07:23:55;39.53;;;30.15;;
75506;SDS011;64086;43.220;27.878;2023-11-22T07:26:20;39.72;;;30.20;;
75506;SDS011;64086;43.220;27.878;2023-11-22T07:28:46;46.00;;;35.20;;
75506;SDS011;64086;43.220;27.878;2023-11-22T07:31:12;46.22;;;34.78;;
75506;SDS011;64086;43.220;27.878;2023-11-22T07:33:37;42.05;;;30.30;;
75506;SDS011;64086;43.220;27.878;2023-11-22T07:36:06;36.63;;;24.77;;
75506;SDS011;64086;43.220;27.878;2023-11-22T07:38:32;36.38;;;23.23;;
75506;SDS011;64086;43.220;27.878;2023-11-22T07:40:58;33.63;;;23.55;;
75506;SDS011;64086;43.220;27.878;2023-11-22T07:43:24;30.08;;;22.92;;
75506;SDS011;64086;43.220;27.878;2023-11-22T07:45:49;31.77;;;22.17;;
75506;SDS011;64086;43.220;27.878;2023-11-22T07:48:16;28.48;;;21.42;;
75506;SDS011;64086;43.220;27.878;2023-11-22T07:50:42;33.17;;;23.13;;
75506;SDS011;64086;43.220;27.878;2023-11-22T07:53:14;28.73;;;22.30;;
75506;SDS011;64086;43.220;27.878;2023-11-22T07:55:40;33.95;;;21.85;;
75506;SDS011;64086;43.220;27.878;2023-11-22T07:58:07;31.42;;;20.48;;
75506;SDS011;64086;43.220;27.878;2023-11-22T08:00:33;36.97;;;21.40;;
75506;SDS011;64086;43.220;27.878;2023-11-22T08:03:07;26.92;;;20.00;;
75506;SDS011;64086;43.220;27.878;2023-11-22T08:05:34;30.48;;;21.42;;
75506;SDS011;64086;43.220;27.878;2023-11-22T08:08:04;24.42;;;18.95;;
75506;SDS011;64086;43.220;27.878;2023-11-22T08:10:33;21.58;;;18.23;;
75506;SDS011;64086;43.220;27.878;2023-11-22T08:12:59;23.65;;;17.33;;
75506;SDS011;64086;43.220;27.878;2023-11-22T08:15:25;21.33;;;16.38;;
75506;SDS011;64086;43.220;27.878;2023-11-22T08:17:51;23.02;;;16.17;;
75506;SDS011;64086;43.220;27.878;2023-11-22T08:20:16;20.60;;;15.88;;
75506;SDS011;64086;43.220;27.878;2023-11-22T08:22:44;17.23;;;15.00;;
75506;SDS011;64086;43.220;27.878;2023-11-22T08:25:16;16.83;;;14.98;;
75506;SDS011;64086;43.220;27.878;2023-11-22T08:27:41;18.80;;;14.90;;
75506;SDS011;64086;43.220;27.878;2023-11-22T08:30:07;13.50;;;11.02;;
75506;SDS011;64086;43.220;27.878;2023-11-22T08:32:38;12.43;;;11.25;;
75506;SDS011;64086;43.220;27.878;2023-11-22T08:35:08;16.65;;;13.43;;
75506;SDS011;64086;43.220;27.878;2023-11-22T08:37:34;16.65;;;15.00;;
75506;SDS011;64086;43.220;27.878;2023-11-22T08:40:02;18.35;;;14.82;;
75506;SDS011;64086;43.220;27.878;2023-11-22T08:42:31;12.75;;;11.52;;
75506;SDS011;64086;43.220;27.878;2023-11-22T08:44:58;16.30;;;12.05;;
75506;SDS011;64086;43.220;27.878;2023-11-22T08:47:23;13.50;;;12.10;;
75506;SDS011;64086;43.220;27.878;2023-11-22T08:49:48;13.15;;;11.48;;
75506;SDS011;64086;43.220;27.878;2023-11-22T08:52:14;12.45;;;10.75;;
75506;SDS011;64086;43.220;27.878;2023-11-22T08:54:39;13.10;;;10.80;;
75506;SDS011;64086;43.220;27.878;2023-11-22T08:57:06;14.05;;;11.32;;
75506;SDS011;64086;43.220;27.878;2023-11-22T08:59:31;15.02;;;12.02;;
75506;SDS011;64086;43.220;27.878;2023-11-22T09:02:03;16.02;;;12.27;;
75506;SDS011;64086;43.220;27.878;2023-11-22T09:04:29;14.63;;;11.75;;
75506;SDS011;64086;43.220;27.878;2023-11-22T09:06:56;17.58;;;14.48;;
75506;SDS011;64086;43.220;27.878;2023-11-22T09:09:22;17.30;;;13.55;;
75506;SDS011;64086;43.220;27.878;2023-11-22T09:14:20;25.08;;;17.05;;
75506;SDS011;64086;43.220;27.878;2023-11-22T09:16:46;19.77;;;17.50;;
75506;SDS011;64086;43.220;27.878;2023-11-22T09:19:19;24.38;;;19.02;;
75506;SDS011;64086;43.220;27.878;2023-11-22T09:21:44;23.63;;;18.88;;
75506;SDS011;64086;43.220;27.878;2023-11-22T09:24:10;21.20;;;19.00;;
75506;SDS011;64086;43.220;27.878;2023-11-22T09:26:37;26.10;;;19.40;;
75506;SDS011;64086;43.220;27.878;2023-11-22T09:29:03;23.40;;;17.80;;
75506;SDS011;64086;43.220;27.878;2023-11-22T09:31:29;29.50;;;17.75;;
75506;SDS011;64086;43.220;27.878;2023-11-22T09:33:55;22.42;;;15.23;;
75506;SDS011;64086;43.220;27.878;2023-11-22T09:36:22;18.42;;;13.15;;
75506;SDS011;64086;43.220;27.878;2023-11-22T09:38:49;18.30;;;12.45;;
75506;SDS011;64086;43.220;27.878;2023-11-22T09:41:15;13.98;;;11.18;;
75506;SDS011;64086;43.220;27.878;2023-11-22T09:43:42;12.75;;;11.18;;
75506;SDS011;64086;43.220;27.878;2023-11-22T09:46:09;15.52;;;11.32;;
75506;SDS011;64086;43.220;27.878;2023-11-22T09:48:36;20.35;;;11.80;;
75506;SDS011;64086;43.220;27.878;2023-11-22T09:56:08;16.38;;;12.75;;
75506;SDS011;64086;43.220;27.878;2023-11-22T09:58:35;13.68;;;11.88;;
75506;SDS011;64086;43.220;27.878;2023-11-22T10:01:04;14.85;;;12.57;;
75506;SDS011;64086;43.220;27.878;2023-11-22T10:03:30;15.57;;;12.63;;
75506;SDS011;64086;43.220;27.878;2023-11-22T10:05:56;17.48;;;12.82;;
75506;SDS011;64086;43.220;27.878;2023-11-22T10:08:24;13.88;;;12.15;;
75506;SDS011;64086;43.220;27.878;2023-11-22T10:10:50;17.98;;;13.18;;
75506;SDS011;64086;43.220;27.878;2023-11-22T10:13:19;12.43;;;11.18;;
75506;SDS011;64086;43.220;27.878;2023-11-22T10:15:46;9.80;;;8.40;;
75506;SDS011;64086;43.220;27.878;2023-11-22T10:18:13;9.60;;;8.50;;
75506;SDS011;64086;43.220;27.878;2023-11-22T10:20:42;9.65;;;8.75;;
75506;SDS011;64086;43.220;27.878;2023-11-22T10:23:11;10.45;;;9.45;;
75506;SDS011;64086;43.220;27.878;2023-11-22T10:25:45;11.32;;;9.63;;
75506;SDS011;64086;43.220;27.878;2023-11-22T10:28:32;10.30;;;9.25;;
75506;SDS011;64086;43.220;27.878;2023-11-22T10:30:58;11.52;;;10.35;;
75506;SDS011;64086;43.220;27.878;2023-11-22T10:33:23;11.63;;;10.38;;
75506;SDS011;64086;43.220;27.878;2023-11-22T10:35:50;11.38;;;10.27;;
75506;SDS011;64086;43.220;27.878;2023-11-22T10:38:19;11.45;;;10.38;;
75506;SDS011;64086;43.220;27.878;2023-11-22T10:40:45;12.07;;;10.88;;
75506;SDS011;64086;43.220;27.878;2023-11-22T10:43:11;13.93;;;11.82;;
75506;SDS011;64086;43.220;27.878;2023-11-22T10:45:37;12.70;;;11.48;;
75506;SDS011;64086;43.220;27.878;2023-11-22T10:48:04;12.95;;;11.45;;
75506;SDS011;64086;43.220;27.878;2023-11-22T10:50:30;12.52;;;11.23;;
75506;SDS011;64086;43.220;27.878;2023-11-22T10:52:56;13.05;;;11.63;;
75506;SDS011;64086;43.220;27.878;2023-11-22T10:55:31;13.57;;;12.23;;
75506;SDS011;64086;43.220;27.878;2023-11-22T10:58:04;12.63;;;11.00;;
75506;SDS011;64086;43.220;27.878;2023-11-22T11:00:31;12.40;;;11.10;;
75506;SDS011;64086;43.220;27.878;2023-11-22T11:03:07;10.23;;;9.15;;
75506;SDS011;64086;43.220;27.878;2023-11-22T11:05:38;10.48;;;9.45;;
75506;SDS011;64086;43.220;27.878;2023-11-22T11:08:11;8.95;;;7.95;;
75506;SDS011;64086;43.220;27.878;2023-11-22T11:10:39;11.15;;;8.05;;
75506;SDS011;64086;43.220;27.878;2023-11-22T11:13:10;7.95;;;7.15;;
75506;SDS011;64086;43.220;27.878;2023-11-22T11:15:36;8.68;;;7.13;;
75506;SDS011;64086;43.220;27.878;2023-11-22T11:18:08;10.70;;;7.07;;
75506;SDS011;64086;43.220;27.878;2023-11-22T11:20:48;9.30;;;7.53;;
75506;SDS011;64086;43.220;27.878;2023-11-22T11:23:21;8.43;;;7.05;;
75506;SDS011;64086;43.220;27.878;2023-11-22T11:25:58;9.38;;;6.28;;
75506;SDS011;64086;43.220;27.878;2023-11-22T11:28:25;6.88;;;5.53;;
75506;SDS011;64086;43.220;27.878;2023-11-22T11:30:51;7.20;;;5.18;;
75506;SDS011;64086;43.220;27.878;2023-11-22T11:36:16;6.78;;;4.88;;
75506;SDS011;64086;43.220;27.878;2023-11-22T11:38:47;7.03;;;4.90;;
75506;SDS011;64086;43.220;27.878;2023-11-22T11:41:14;7.10;;;4.68;;
75506;SDS011;64086;43.220;27.878;2023-11-22T11:43:43;9.07;;;4.82;;
75506;SDS011;64086;43.220;27.878;2023-11-22T11:46:15;7.53;;;4.53;;
75506;SDS011;64086;43.220;27.878;2023-11-22T11:48:45;6.97;;;4.80;;
75506;SDS011;64086;43.220;27.878;2023-11-22T11:51:13;8.27;;;5.45;;
75506;SDS011;64086;43.220;27.878;2023-11-22T11:53:42;6.05;;;4.75;;
75506;SDS011;64086;43.220;27.878;2023-11-22T11:56:07;6.82;;;4.85;;
75506;SDS011;64086;43.220;27.878;2023-11-22T11:58:34;6.40;;;4.80;;
75506;SDS011;64086;43.220;27.878;2023-11-22T12:00:59;6.38;;;4.45;;
75506;SDS011;64086;43.220;27.878;2023-11-22T12:03:25;7.43;;;4.28;;
75506;SDS011;64086;43.220;27.878;2023-11-22T12:05:50;6.78;;;4.50;;
75506;SDS011;64086;43.220;27.878;2023-11-22T12:08:16;6.28;;;3.90;;
75506;SDS011;64086;43.220;27.878;2023-11-22T12:10:43;8.25;;;4.70;;
75506;SDS011;64086;43.220;27.878;2023-11-22T12:13:15;6.57;;;3.90;;
75506;SDS011;64086;43.220;27.878;2023-11-22T12:15:42;6.68;;;3.90;;
75506;SDS011;64086;43.220;27.878;2023-11-22T12:18:07;4.70;;;3.70;;
75506;SDS011;64086;43.220;27.878;2023-11-22T12:20:33;5.65;;;3.78;;
75506;SDS011;64086;43.220;27.878;2023-11-22T12:22:59;8.50;;;3.58;;
75506;SDS011;64086;43.220;27.878;2023-11-22T12:25:27;6.57;;;3.70;;
75506;SDS011;64086;43.220;27.878;2023-11-22T12:27:56;5.75;;;3.20;;
75506;SDS011;64086;43.220;27.878;2023-11-22T12:32:54;5.32;;;3.70;;
75506;SDS011;64086;43.220;27.878;2023-11-22T12:35:19;4.63;;;3.08;;
75506;SDS011;64086;43.220;27.878;2023-11-22T12:37:44;4.30;;;2.72;;
75506;SDS011;64086;43.220;27.878;2023-11-22T12:40:12;4.30;;;2.88;;
75506;SDS011;64086;43.220;27.878;2023-11-22T12:42:49;3.97;;;2.83;;
75506;SDS011;64086;43.220;27.878;2023-11-22T12:45:24;5.65;;;3.15;;
75506;SDS011;64086;43.220;27.878;2023-11-22T12:47:51;4.38;;;3.28;;
75506;SDS011;64086;43.220;27.878;2023-11-22T12:50:30;5.25;;;2.90;;
75506;SDS011;64086;43.220;27.878;2023-11-22T12:53:07;5.22;;;3.42;;
75506;SDS011;64086;43.220;27.878;2023-11-22T12:58:09;4.88;;;3.28;;
75506;SDS011;64086;43.220;27.878;2023-11-22T13:00:35;5.28;;;3.28;;
75506;SDS011;64086;43.220;27.878;2023-11-22T13:03:01;4.47;;;3.20;;
75506;SDS011;64086;43.220;27.878;2023-11-22T13:05:26;4.93;;;3.28;;
75506;SDS011;64086;43.220;27.878;2023-11-22T13:07:52;5.07;;;3.80;;
75506;SDS011;64086;43.220;27.878;2023-11-22T13:10:18;4.15;;;3.22;;
75506;SDS011;64086;43.220;27.878;2023-11-22T13:12:44;5.15;;;3.60;;
75506;SDS011;64086;43.220;27.878;2023-11-22T13:15:11;6.03;;;3.35;;
75506;SDS011;64086;43.220;27.878;2023-11-22T13:17:39;5.32;;;3.50;;
75506;SDS011;64086;43.220;27.878;2023-11-22T13:20:07;4.22;;;3.47;;
75506;SDS011;64086;43.220;27.878;2023-11-22T13:22:41;6.30;;;3.33;;
75506;SDS011;64086;43.220;27.878;2023-11-22T13:25:10;4.40;;;2.85;;
75506;SDS011;64086;43.220;27.878;2023-11-22T13:27:36;6.47;;;3.75;;
75506;SDS011;64086;43.220;27.878;2023-11-22T13:30:02;5.00;;;3.40;;
75506;SDS011;64086;43.220;27.878;2023-11-22T13:32:30;5.53;;;3.65;;
75506;SDS011;64086;43.220;27.878;2023-11-22T13:34:55;4.50;;;3.47;;
75506;SDS011;64086;43.220;27.878;2023-11-22T13:37:22;6.05;;;3.05;;
75506;SDS011;64086;43.220;27.878;2023-11-22T13:39:48;4.32;;;2.72;;
75506;SDS011;64086;43.220;27.878;2023-11-22T13:42:14;3.10;;;2.55;;
75506;SDS011;64086;43.220;27.878;2023-11-22T13:44:39;5.35;;;3.17;;
75506;SDS011;64086;43.220;27.878;2023-11-22T13:47:06;5.07;;;3.30;;
75506;SDS011;64086;43.220;27.878;2023-11-22T13:49:33;4.63;;;3.10;;
75506;SDS011;64086;43.220;27.878;2023-11-22T13:51:59;4.90;;;2.75;;
75506;SDS011;64086;43.220;27.878;2023-11-22T13:54:24;4.80;;;3.25;;
75506;SDS011;64086;43.220;27.878;2023-11-22T13:56:49;4.18;;;3.72;;
75506;SDS011;64086;43.220;27.878;2023-11-22T13:59:15;4.82;;;3.60;;
75506;SDS011;64086;43.220;27.878;2023-11-22T14:01:40;4.10;;;3.45;;
75506;SDS011;64086;43.220;27.878;2023-11-22T14:04:06;4.93;;;3.78;;
75506;SDS011;64086;43.220;27.878;2023-11-22T14:06:31;5.25;;;3.85;;
75506;SDS011;64086;43.220;27.878;2023-11-22T14:08:57;4.57;;;3.72;;
75506;SDS011;64086;43.220;27.878;2023-11-22T14:11:24;4.40;;;3.22;;
75506;SDS011;64086;43.220;27.878;2023-11-22T14:13:49;4.45;;;3.53;;
75506;SDS011;64086;43.220;27.878;2023-11-22T14:16:15;4.20;;;3.60;;
75506;SDS011;64086;43.220;27.878;2023-11-22T14:18:40;4.22;;;3.70;;
75506;SDS011;64086;43.220;27.878;2023-11-22T14:21:06;4.53;;;3.97;;
75506;SDS011;64086;43.220;27.878;2023-11-22T14:23:31;5.20;;;4.05;;
75506;SDS011;64086;43.220;27.878;2023-11-22T14:25:58;6.55;;;4.50;;
75506;SDS011;64086;43.220;27.878;2023-11-22T14:28:23;6.28;;;4.70;;
75506;SDS011;64086;43.220;27.878;2023-11-22T14:30:49;7.57;;;5.90;;